createdAt,value
2023-02-17T00:04:57.879Z,36.3
2023-02-17T00:10:22.631Z,36.2
2023-02-17T00:16:00.129Z,36.2
2023-02-17T00:21:22.363Z,36.1
2023-02-17T00:26:59.701Z,36.1
2023-02-17T00:32:36.899Z,36
2023-02-17T00:38:14.363Z,36
2023-02-17T00:43:51.084Z,35.9
2023-02-17T00:49:28.719Z,35.9
2023-02-17T00:55:06.861Z,35.8
2023-02-17T01:00:28.391Z,35.8
2023-02-17T01:06:05.214Z,35.7
2023-02-17T01:17:05.185Z,35.6
2023-02-17T01:22:41.712Z,35.6
2023-02-17T01:28:19.040Z,35.6
2023-02-17T01:39:19.208Z,35.4
2023-02-17T01:44:41.085Z,35.4
2023-02-17T01:55:40.144Z,35.3
2023-02-17T02:01:17.195Z,35.3
2023-02-17T02:06:55.956Z,35.3
2023-02-17T02:12:32.316Z,35.2
2023-02-17T02:18:09.734Z,35.1
2023-02-17T02:23:46.868Z,35.1
2023-02-17T02:29:23.974Z,35.1
2023-02-17T02:35:02.024Z,35
2023-02-17T02:40:39.174Z,34.9
2023-02-17T02:46:00.848Z,34.9
2023-02-17T02:56:29.329Z,34.8
2023-02-17T03:02:06.362Z,34.8
2023-02-17T03:07:43.165Z,34.8
2023-02-17T03:13:19.908Z,34.7
2023-02-17T03:18:57.009Z,34.7
2023-02-17T03:24:34.308Z,34.6
2023-02-17T03:30:11.764Z,34.6
2023-02-17T03:35:34.114Z,34.6
2023-02-17T03:41:11.946Z,34.5
2023-02-17T03:46:48.568Z,34.4
2023-02-17T03:52:09.594Z,34.4
2023-02-17T03:57:47.364Z,34.4
2023-02-17T04:03:24.335Z,34.3
2023-02-17T04:09:01.930Z,34.3
2023-02-17T04:14:39.426Z,34.3
2023-02-17T04:20:16.981Z,34.2
2023-02-17T04:36:44.060Z,33.9
2023-02-17T04:42:22.109Z,33.9
2023-02-17T04:48:00.345Z,33.6
2023-02-17T04:53:36.381Z,33.4
2023-02-17T04:59:13.985Z,33.1
2023-02-17T05:04:35.934Z,32.1
2023-02-17T05:10:13.307Z,31.5
2023-02-17T05:15:51.721Z,30.9
2023-02-17T05:21:29.452Z,30.4
2023-02-17T05:27:07.486Z,30.1
2023-02-17T05:32:30.029Z,29.8
2023-02-17T05:38:07.985Z,29.6
2023-02-17T05:43:45.669Z,29.4
2023-02-17T05:49:23.212Z,29.3
2023-02-17T05:55:00.275Z,29.2
2023-02-17T06:00:38.136Z,29.1
2023-02-17T06:06:16.026Z,29
2023-02-17T06:11:38.250Z,28.9
2023-02-17T06:17:17.802Z,28.8
2023-02-17T06:22:54.617Z,28.8
2023-02-17T06:28:18.099Z,28.7
2023-02-17T06:33:55.251Z,28.6
2023-02-17T06:39:32.554Z,28.6
2023-02-17T06:45:09.927Z,28.5
2023-02-17T06:50:47.658Z,28.4
2023-02-17T06:56:24.857Z,28.4
2023-02-17T07:02:02.929Z,28.3
2023-02-17T07:07:40.220Z,28.3
2023-02-17T07:13:02.976Z,34.6
2023-02-17T07:18:25.431Z,26.1
2023-02-17T07:24:03.423Z,30
2023-02-17T07:29:25.601Z,32
2023-02-17T07:35:03.205Z,33.3
2023-02-17T07:40:27.078Z,35.1
2023-02-17T07:46:05.535Z,36.6
2023-02-17T07:51:43.597Z,38.1
2023-02-17T07:57:20.594Z,39.9
2023-02-17T08:02:58.516Z,41.3
2023-02-17T08:08:35.749Z,42.9
2023-02-17T08:14:15.001Z,43.9
2023-02-17T08:25:29.520Z,47.4
2023-02-17T08:31:07.592Z,47.9
2023-02-17T08:36:45.867Z,49.3
2023-02-17T08:42:06.721Z,50.4
2023-02-17T08:47:44.784Z,51.5
2023-02-17T08:53:23.908Z,52.8
2023-02-17T08:58:58.073Z,53.9
2023-02-17T09:04:20.776Z,55.1
2023-02-17T09:09:44.001Z,56.3
2023-02-17T09:15:23.070Z,56.7
2023-02-17T09:21:13.353Z,58.3
2023-02-17T09:26:45.988Z,58.9
2023-02-17T09:32:09.211Z,59.8
2023-02-17T09:37:31.391Z,60.5
2023-02-17T09:43:11.053Z,61.1
2023-02-17T09:48:57.536Z,61.9
2023-02-17T09:54:19.785Z,62.4
2023-02-17T09:59:44.914Z,63
2023-02-17T10:05:25.892Z,63.6
2023-02-17T10:10:48.056Z,64
2023-02-17T10:16:11.726Z,64.4
2023-02-17T10:21:49.890Z,64.8
2023-02-17T10:27:27.844Z,65
2023-02-17T10:33:09.732Z,65.4
2023-02-17T10:43:57.158Z,66.1
2023-02-17T10:49:06.916Z,66.4
2023-02-17T10:54:29.870Z,66.6
2023-02-17T11:00:05.690Z,66.9
2023-02-17T11:05:12.644Z,66.9
2023-02-17T11:10:33.908Z,67.3
2023-02-17T11:16:14.253Z,67.5
2023-02-17T11:21:53.601Z,67.7
2023-02-17T11:27:17.357Z,67.8
2023-02-17T11:32:55.911Z,67.9
2023-02-17T11:38:33.877Z,67.8
2023-02-17T11:43:55.229Z,67.6
2023-02-17T11:55:09.750Z,67.9
2023-02-17T12:00:47.323Z,67.9
2023-02-17T12:06:24.933Z,67.9
2023-02-17T12:11:47.124Z,67.8
2023-02-17T12:17:09.301Z,67.6
2023-02-17T12:22:14.862Z,67.6
2023-02-17T12:27:54.240Z,67.4
2023-02-17T12:33:16.959Z,67.4
2023-02-17T12:38:38.521Z,67.1
2023-02-17T12:44:01.011Z,66.9
2023-02-17T12:49:24.106Z,66.3
2023-02-17T12:54:45.927Z,66.5
2023-02-17T13:00:09.672Z,66.5
2023-02-17T13:05:32.044Z,66.5
2023-02-17T13:10:53.594Z,66.1
2023-02-17T13:16:00.126Z,65.8
2023-02-17T13:21:22.165Z,65.3
2023-02-17T13:26:43.881Z,64.8
2023-02-17T13:32:06.035Z,64.2
2023-02-17T13:37:28.719Z,63.9
2023-02-17T13:42:52.285Z,63.4
2023-02-17T13:48:14.754Z,62.8
2023-02-17T13:53:54.425Z,62.4
2023-02-17T13:59:16.003Z,61.3
2023-02-17T14:04:47.688Z,61.1
2023-02-17T14:10:10.202Z,60.4
2023-02-17T14:15:31.993Z,59.3
2023-02-17T14:21:12.380Z,58.1
2023-02-17T14:27:00.204Z,52.9
2023-02-17T14:32:37.784Z,49.9
2023-02-17T14:38:14.687Z,48.1
2023-02-17T14:43:52.430Z,46.9
2023-02-17T14:49:31.670Z,46.1
2023-02-17T14:54:53.432Z,45.6
2023-02-17T15:00:30.299Z,45.1
2023-02-17T15:06:08.248Z,44.8
2023-02-17T15:11:49.482Z,44.4
2023-02-17T15:17:27.024Z,44.1
2023-02-17T15:23:04.661Z,43.9
2023-02-17T15:28:46.540Z,43.8
2023-02-17T15:34:26.506Z,43.6
2023-02-17T15:40:04.614Z,43.5
2023-02-17T15:45:30.740Z,43.4
2023-02-17T15:51:09.789Z,43.2
2023-02-17T15:56:31.870Z,42.9
2023-02-17T16:02:10.019Z,42.8
2023-02-17T16:07:48.581Z,42.5
2023-02-17T16:13:25.675Z,42.3
2023-02-17T16:19:02.758Z,42.1
2023-02-17T16:24:40.992Z,41.9
2023-02-17T16:30:03.528Z,41.8
2023-02-17T16:35:27.205Z,41.6
2023-02-17T16:40:51.744Z,41.5
2023-02-17T16:46:30.025Z,41.3
2023-02-17T16:52:10.041Z,41.2
2023-02-17T16:57:48.339Z,41.1
2023-02-17T17:03:27.112Z,41
2023-02-17T17:09:04.515Z,40.9
2023-02-17T17:14:47.133Z,40.8
2023-02-17T17:20:23.836Z,40.7
2023-02-17T17:26:01.543Z,40.6
2023-02-17T17:31:24.151Z,40.5
2023-02-17T17:36:46.460Z,40.4
2023-02-17T17:42:11.310Z,40.3
2023-02-17T17:47:46.209Z,40.3
2023-02-17T17:52:55.215Z,40.2
2023-02-17T17:58:32.482Z,40.1
2023-02-17T18:04:13.477Z,40
2023-02-17T18:09:47.747Z,39.9
2023-02-17T18:15:25.144Z,39.9
2023-02-17T18:21:03.183Z,39.8
2023-02-17T18:26:44.057Z,39.8
2023-02-17T18:32:22.895Z,39.7
2023-02-17T18:38:01.292Z,39.6
2023-02-17T18:43:38.364Z,39.6
2023-02-17T18:48:59.945Z,39.5
2023-02-17T18:54:22.342Z,39.4
2023-02-17T18:59:59.151Z,39.4
2023-02-17T19:05:36.101Z,39.3
2023-02-17T19:11:13.118Z,39.3
2023-02-17T19:16:49.894Z,39.2
2023-02-17T19:22:26.572Z,39.2
2023-02-17T19:28:04.163Z,39.1
2023-02-17T19:33:42.310Z,39.1
2023-02-17T19:39:19.328Z,39
2023-02-17T19:50:20.667Z,38.9
2023-02-17T19:55:57.969Z,38.9
2023-02-17T20:06:57.570Z,38.8
2023-02-17T20:12:34.538Z,38.7
2023-02-17T20:18:15.518Z,38.6
2023-02-17T20:23:52.939Z,38.6
2023-02-17T20:29:30.256Z,38.6
2023-02-17T20:34:53.615Z,38.5
2023-02-17T20:40:31.238Z,38.4
2023-02-17T20:45:53.596Z,38.4
2023-02-17T20:51:32.223Z,38.4
2023-02-17T20:57:09.861Z,38.3
2023-02-17T21:02:47.970Z,38.3
2023-02-17T21:08:25.807Z,38.3
2023-02-17T21:14:02.717Z,38.2
2023-02-17T21:19:40.013Z,38.1
2023-02-17T21:25:17.203Z,38.1
2023-02-17T21:30:54.802Z,38.1
2023-02-17T21:36:32.230Z,38
2023-02-17T21:41:54.341Z,37.9
2023-02-17T21:47:17.950Z,37.9
2023-02-17T21:52:55.384Z,37.9
2023-02-17T21:58:18.427Z,37.8
2023-02-17T22:03:54.529Z,37.8
2023-02-17T22:09:15.457Z,37.8
2023-02-17T22:14:36.560Z,37.7
2023-02-17T22:20:13.377Z,37.6
2023-02-17T22:25:49.997Z,37.6
2023-02-17T22:31:28.101Z,37.6
2023-02-17T22:37:05.793Z,37.5
2023-02-17T22:42:41.732Z,37.5
2023-02-17T22:48:19.456Z,37.5
2023-02-17T22:53:56.832Z,37.4
2023-02-17T22:59:18.382Z,37.3
2023-02-17T23:04:58.340Z,37.3
2023-02-17T23:10:21.150Z,37.3
2023-02-17T23:15:58.700Z,37.2
2023-02-17T23:21:36.454Z,37.2
2023-02-17T23:27:14.257Z,37.1
2023-02-17T23:32:51.182Z,37.1
2023-02-17T23:38:12.780Z,37.1
2023-02-17T23:43:50.705Z,37
2023-02-17T23:49:28.767Z,37
2023-02-17T23:55:06.282Z,36.9
